createdAt,value
2018-06-11T00:00:01.240Z,19.01
2018-06-11T00:01:54.025Z,18.97
2018-06-11T00:02:53.963Z,18.94
2018-06-11T00:04:46.768Z,18.96
2018-06-11T00:05:46.722Z,18.93
2018-06-11T00:07:39.548Z,18.96
2018-06-11T00:08:39.404Z,18.93
2018-06-11T00:10:32.203Z,18.84
2018-06-11T00:11:32.127Z,18.87
2018-06-11T00:13:24.898Z,18.94
2018-06-11T00:14:24.867Z,18.82
2018-06-11T00:16:17.612Z,18.76
2018-06-11T00:17:17.544Z,18.69
2018-06-11T00:19:10.351Z,18.66
2018-06-11T00:20:10.259Z,18.69
2018-06-11T00:22:03.039Z,18.72
2018-06-11T00:23:02.973Z,18.74
2018-06-11T00:24:55.795Z,18.69
2018-06-11T00:25:55.693Z,18.69
2018-06-11T00:27:48.473Z,18.79
2018-06-11T00:28:48.409Z,18.78
2018-06-11T00:30:41.213Z,18.78
2018-06-11T00:31:41.120Z,18.79
2018-06-11T00:33:33.917Z,18.82
2018-06-11T00:34:33.847Z,18.69
2018-06-11T00:36:26.649Z,18.59
2018-06-11T00:37:26.556Z,18.60
2018-06-11T00:39:19.338Z,18.72
2018-06-11T00:40:19.269Z,18.59
2018-06-11T00:42:12.057Z,18.56
2018-06-11T00:43:11.991Z,18.59
2018-06-11T00:45:04.786Z,18.66
2018-06-11T00:46:04.714Z,18.59
2018-06-11T00:47:57.507Z,18.47
2018-06-11T00:48:57.446Z,18.39
2018-06-11T00:50:49.350Z,18.36
2018-06-11T00:51:49.281Z,18.36
2018-06-11T00:53:42.060Z,18.32
2018-06-11T00:54:42.010Z,18.36
2018-06-11T00:56:34.872Z,18.38
2018-06-11T00:57:34.788Z,18.38
2018-06-11T00:59:27.569Z,18.29
2018-06-11T01:00:27.504Z,18.25
2018-06-11T01:02:20.310Z,18.32
2018-06-11T01:03:20.270Z,18.29
2018-06-11T01:05:13.047Z,18.32
2018-06-11T01:06:12.966Z,18.26
2018-06-11T01:08:05.741Z,18.26
2018-06-11T01:09:05.671Z,18.25
2018-06-11T01:10:58.480Z,18.16
2018-06-11T01:11:58.402Z,18.11
2018-06-11T01:13:51.174Z,18.19
2018-06-11T01:14:51.117Z,18.14
2018-06-11T01:16:43.937Z,17.81
2018-06-11T01:17:43.845Z,17.95
2018-06-11T01:19:36.622Z,17.77
2018-06-11T01:20:36.551Z,17.74
2018-06-11T01:22:29.358Z,17.73
2018-06-11T01:23:29.306Z,17.66
2018-06-11T01:25:22.072Z,17.71
2018-06-11T01:26:21.992Z,17.73
2018-06-11T01:28:14.776Z,17.73
2018-06-11T01:29:14.713Z,17.76
2018-06-11T01:31:07.500Z,17.73
2018-06-11T01:32:07.425Z,17.73
2018-06-11T01:34:00.207Z,17.80
2018-06-11T01:35:00.149Z,17.80
2018-06-11T01:36:52.939Z,17.89
2018-06-11T01:37:52.878Z,17.79
2018-06-11T01:39:45.666Z,17.81
2018-06-11T01:40:45.593Z,17.73
2018-06-11T01:42:38.374Z,17.76
2018-06-11T01:43:38.303Z,17.76
2018-06-11T01:45:31.095Z,17.76
2018-06-11T01:46:31.024Z,17.71
2018-06-11T01:48:23.811Z,17.60
2018-06-11T01:49:23.764Z,17.68
2018-06-11T01:51:16.534Z,17.79
2018-06-11T01:52:16.454Z,17.76
2018-06-11T01:54:09.249Z,17.66
2018-06-11T01:55:09.186Z,17.73
2018-06-11T01:57:02.021Z,17.86
2018-06-11T01:58:01.950Z,17.79
2018-06-11T01:59:54.724Z,17.89
2018-06-11T02:00:54.657Z,17.95
2018-06-11T02:02:47.475Z,17.99
2018-06-11T02:03:47.393Z,18.09
2018-06-11T02:05:40.206Z,17.92
2018-06-11T02:06:40.109Z,17.89
2018-06-11T02:08:32.887Z,17.80
2018-06-11T02:09:32.824Z,17.80
2018-06-11T02:11:25.651Z,17.84
2018-06-11T02:12:25.537Z,18.01
2018-06-11T02:14:18.323Z,17.96
2018-06-11T02:15:18.263Z,18.02
2018-06-11T02:17:11.085Z,17.95
2018-06-11T02:18:10.997Z,17.89
2018-06-11T02:20:03.756Z,17.92
2018-06-11T02:21:03.696Z,17.89
2018-06-11T02:22:56.516Z,17.92
2018-06-11T02:23:56.478Z,17.89
2018-06-11T02:25:49.207Z,17.79
2018-06-11T02:26:49.146Z,17.80
2018-06-11T02:28:41.935Z,17.89
2018-06-11T02:29:41.861Z,17.84
2018-06-11T02:31:34.633Z,17.91
2018-06-11T02:32:34.570Z,17.96
2018-06-11T02:34:27.382Z,17.92
2018-06-11T02:35:27.270Z,18.02
2018-06-11T02:37:20.055Z,17.98
2018-06-11T02:38:19.981Z,18.05
2018-06-11T02:40:12.747Z,18.07
2018-06-11T02:41:12.688Z,18.07
2018-06-11T02:43:05.481Z,18.10
2018-06-11T02:44:05.409Z,18.16
2018-06-11T02:45:58.262Z,18.07
2018-06-11T02:46:58.177Z,18.13
2018-06-11T02:48:50.924Z,18.07
2018-06-11T02:49:50.851Z,18.14
2018-06-11T02:51:43.622Z,17.96
2018-06-11T02:52:43.557Z,18.01
2018-06-11T02:54:36.348Z,18.02
2018-06-11T02:55:36.270Z,17.98
2018-06-11T02:57:29.050Z,18.05
2018-06-11T02:58:29.030Z,18.17
2018-06-11T03:00:21.749Z,18.16
2018-06-11T03:01:21.707Z,18.16
2018-06-11T03:03:14.479Z,18.20
2018-06-11T03:04:14.397Z,18.31
2018-06-11T03:06:07.171Z,18.26
2018-06-11T03:07:07.102Z,18.25
2018-06-11T03:08:59.889Z,18.19
2018-06-11T03:09:59.821Z,18.23
2018-06-11T03:11:52.604Z,18.29
2018-06-11T03:12:52.539Z,18.32
2018-06-11T03:14:45.321Z,18.38
2018-06-11T03:15:45.255Z,18.51
2018-06-11T03:17:38.037Z,18.54
2018-06-11T03:18:37.973Z,18.60
2018-06-11T03:20:30.739Z,18.57
2018-06-11T03:21:30.677Z,18.60
2018-06-11T03:23:23.459Z,18.68
2018-06-11T03:24:23.385Z,18.71
2018-06-11T03:26:16.147Z,18.64
2018-06-11T03:27:16.088Z,18.65
2018-06-11T03:29:08.864Z,18.78
2018-06-11T03:30:08.796Z,18.64
2018-06-11T03:32:01.575Z,18.82
2018-06-11T03:33:01.505Z,18.78
2018-06-11T03:34:54.270Z,18.91
2018-06-11T03:35:54.197Z,18.87
2018-06-11T03:37:46.972Z,18.87
2018-06-11T03:38:46.911Z,18.91
2018-06-11T03:40:39.694Z,18.91
2018-06-11T03:41:39.671Z,18.91
2018-06-11T03:43:32.397Z,19.05
2018-06-11T03:44:32.320Z,19.07
2018-06-11T03:46:25.103Z,19.02
2018-06-11T03:47:25.030Z,19.07
2018-06-11T03:49:17.816Z,19.09
2018-06-11T03:50:17.747Z,19.15
2018-06-11T03:52:10.509Z,19.25
2018-06-11T03:53:10.455Z,19.27
2018-06-11T03:55:03.236Z,19.23
2018-06-11T03:56:03.162Z,19.32
2018-06-11T03:57:55.950Z,19.39
2018-06-11T03:58:55.881Z,19.45
2018-06-11T04:00:48.674Z,19.27
2018-06-11T04:01:48.594Z,19.30
2018-06-11T04:03:41.383Z,19.21
2018-06-11T04:04:41.307Z,19.21
2018-06-11T04:06:34.090Z,19.28
2018-06-11T04:07:34.035Z,19.17
2018-06-11T04:09:26.847Z,19.23
2018-06-11T04:10:26.766Z,19.25
2018-06-11T04:12:19.589Z,19.24
2018-06-11T04:13:19.508Z,19.27
2018-06-11T04:15:12.314Z,19.23
2018-06-11T04:16:12.243Z,19.21
2018-06-11T04:18:05.008Z,19.23
2018-06-11T04:19:04.952Z,19.28
2018-06-11T04:20:57.742Z,19.20
2018-06-11T04:21:57.661Z,19.27
2018-06-11T04:23:50.458Z,19.20
2018-06-11T04:24:50.383Z,19.31
2018-06-11T04:26:43.159Z,19.27
2018-06-11T04:27:43.098Z,19.28
2018-06-11T04:29:35.886Z,19.23
2018-06-11T04:30:35.836Z,19.21
2018-06-11T04:32:28.613Z,19.30
2018-06-11T04:33:28.534Z,19.24
2018-06-11T04:35:21.333Z,19.38
2018-06-11T04:36:21.260Z,19.34
2018-06-11T04:38:14.048Z,19.34
2018-06-11T04:39:13.995Z,19.39
2018-06-11T04:41:06.781Z,19.46
2018-06-11T04:42:06.702Z,19.39
2018-06-11T04:43:59.496Z,19.34
2018-06-11T04:44:59.435Z,19.39
2018-06-11T04:46:52.257Z,19.52
2018-06-11T04:47:52.142Z,19.53
2018-06-11T04:49:44.953Z,19.55
2018-06-11T04:50:44.864Z,19.53
2018-06-11T04:52:37.648Z,19.62
2018-06-11T04:53:37.593Z,19.57
2018-06-11T04:55:30.377Z,19.67
2018-06-11T04:56:30.295Z,19.64
2018-06-11T04:58:23.085Z,19.75
2018-06-11T04:59:23.035Z,19.67
2018-06-11T05:01:15.809Z,19.71
2018-06-11T05:02:15.748Z,19.75
2018-06-11T05:04:08.516Z,19.85
2018-06-11T05:05:08.465Z,19.82
2018-06-11T05:07:01.240Z,19.80
2018-06-11T05:08:01.199Z,20.00
2018-06-11T05:09:53.978Z,19.89
2018-06-11T05:10:53.890Z,19.97
2018-06-11T05:12:46.661Z,20.01
2018-06-11T05:13:46.607Z,20.15
2018-06-11T05:15:39.388Z,20.08
2018-06-11T05:16:39.316Z,20.12
2018-06-11T05:18:32.115Z,20.12
2018-06-11T05:19:32.056Z,20.05
2018-06-11T05:21:24.841Z,19.98
2018-06-11T05:22:24.769Z,20.07
2018-06-11T05:24:17.554Z,20.05
2018-06-11T05:25:17.494Z,20.02
2018-06-11T05:27:10.309Z,20.22
2018-06-11T05:28:10.229Z,20.22
2018-06-11T05:30:02.989Z,20.22
2018-06-11T05:31:02.937Z,20.38
2018-06-11T05:32:55.721Z,20.37
2018-06-11T05:33:55.661Z,20.40
2018-06-11T05:35:48.444Z,20.30
2018-06-11T05:36:48.367Z,20.27
2018-06-11T05:38:41.156Z,20.23
2018-06-11T05:39:41.091Z,20.20
2018-06-11T05:41:33.877Z,20.44
2018-06-11T05:42:33.802Z,20.44
2018-06-11T05:44:26.602Z,20.56
2018-06-11T05:45:26.541Z,20.56
2018-06-11T05:47:19.336Z,20.64
2018-06-11T05:48:19.272Z,20.75
2018-06-11T05:50:12.054Z,20.78
2018-06-11T05:51:11.985Z,20.71
2018-06-11T05:53:04.798Z,20.56
2018-06-11T05:54:04.697Z,20.58
2018-06-11T05:55:57.524Z,20.54
2018-06-11T05:56:57.455Z,20.64
2018-06-11T05:58:50.218Z,20.73
2018-06-11T05:59:50.160Z,20.66
2018-06-11T06:01:42.958Z,20.66
2018-06-11T06:02:42.871Z,20.69
2018-06-11T06:04:35.706Z,20.54
2018-06-11T06:05:35.589Z,20.63
2018-06-11T06:07:28.381Z,20.76
2018-06-11T06:08:28.313Z,20.76
2018-06-11T06:10:21.106Z,20.76
2018-06-11T06:11:21.047Z,20.78
2018-06-11T06:13:13.834Z,20.63
2018-06-11T06:14:13.775Z,20.78
2018-06-11T06:16:06.534Z,20.71
2018-06-11T06:17:06.478Z,20.82
2018-06-11T06:18:59.286Z,20.90
2018-06-11T06:19:59.191Z,20.90
2018-06-11T06:21:52.006Z,21.03
2018-06-11T06:22:51.940Z,21.00
2018-06-11T06:24:44.731Z,21.03
2018-06-11T06:25:44.666Z,21.16
2018-06-11T06:27:37.448Z,21.21
2018-06-11T06:28:37.381Z,21.16
2018-06-11T06:30:30.172Z,21.03
2018-06-11T06:31:30.088Z,21.06
2018-06-11T06:33:22.870Z,21.11
2018-06-11T06:34:22.855Z,21.15
2018-06-11T06:36:15.593Z,21.48
2018-06-11T06:37:15.537Z,21.63
2018-06-11T06:39:08.334Z,22.02
2018-06-11T06:40:08.260Z,22.63
2018-06-11T06:42:01.091Z,22.88
2018-06-11T06:43:01.058Z,23.75
2018-06-11T06:44:53.795Z,25.12
2018-06-11T06:45:53.736Z,25.17
2018-06-11T06:47:46.584Z,24.86
2018-06-11T06:48:46.464Z,24.49
2018-06-11T06:50:39.230Z,23.87
2018-06-11T06:51:39.180Z,23.63
2018-06-11T06:53:31.969Z,23.22
2018-06-11T06:54:31.889Z,23.19
2018-06-11T06:56:24.672Z,22.96
2018-06-11T06:57:24.623Z,22.74
2018-06-11T06:59:17.399Z,22.64
2018-06-11T07:00:17.326Z,22.52
2018-06-11T07:02:10.104Z,22.51
2018-06-11T07:03:10.048Z,22.30
2018-06-11T07:05:02.827Z,22.30
2018-06-11T07:06:02.757Z,22.27
2018-06-11T07:07:55.571Z,22.19
2018-06-11T07:08:55.476Z,22.14
2018-06-11T07:10:48.253Z,21.83
2018-06-11T07:11:48.196Z,21.68
2018-06-11T07:13:41.012Z,21.53
2018-06-11T07:14:40.933Z,21.48
2018-06-11T07:16:33.719Z,21.67
2018-06-11T07:17:33.652Z,21.68
2018-06-11T07:19:26.439Z,21.86
2018-06-11T07:20:26.376Z,22.15
2018-06-11T07:22:19.150Z,22.44
2018-06-11T07:23:19.094Z,22.85
2018-06-11T07:25:11.903Z,22.74
2018-06-11T07:26:11.809Z,22.57
2018-06-11T07:28:04.588Z,22.96
2018-06-11T07:29:04.528Z,23.04
2018-06-11T07:30:57.316Z,23.04
2018-06-11T07:31:57.251Z,22.85
2018-06-11T07:33:50.103Z,22.48
2018-06-11T07:34:49.972Z,22.42
2018-06-11T07:36:42.767Z,22.17
2018-06-11T07:37:42.712Z,22.19
2018-06-11T07:39:35.504Z,22.39
2018-06-11T07:40:35.429Z,22.78
2018-06-11T07:42:28.239Z,23.82
2018-06-11T07:43:28.175Z,24.74
2018-06-11T07:45:20.987Z,24.53
2018-06-11T07:46:20.928Z,24.87
2018-06-11T07:48:13.706Z,25.72
2018-06-11T07:49:13.656Z,26.39
2018-06-11T07:51:06.443Z,26.59
2018-06-11T07:52:06.367Z,26.53
2018-06-11T07:53:59.149Z,28.02
2018-06-11T07:54:59.086Z,28.18
2018-06-11T07:56:51.886Z,28.55
2018-06-11T07:57:51.812Z,27.61
2018-06-11T07:59:44.636Z,26.00
2018-06-11T08:00:44.575Z,25.74
2018-06-11T08:02:37.330Z,25.01
2018-06-11T08:03:37.278Z,24.97
2018-06-11T08:05:30.093Z,26.83
2018-06-11T08:06:30.028Z,27.06
2018-06-11T08:08:22.893Z,26.96
2018-06-11T08:09:22.821Z,26.90
2018-06-11T08:11:15.698Z,26.36
2018-06-11T08:12:15.594Z,26.06
2018-06-11T08:14:08.397Z,26.19
2018-06-11T08:15:08.328Z,26.39
2018-06-11T08:17:01.134Z,25.81
2018-06-11T08:18:01.052Z,25.42
2018-06-11T08:19:53.859Z,26.27
2018-06-11T08:20:53.865Z,26.46
2018-06-11T08:22:46.590Z,25.97
2018-06-11T08:23:46.535Z,25.78
2018-06-11T08:25:39.308Z,26.03
2018-06-11T08:26:39.235Z,26.21
2018-06-11T08:28:32.029Z,25.98
2018-06-11T08:29:31.963Z,26.76
2018-06-11T08:31:24.780Z,27.74
2018-06-11T08:32:24.719Z,28.02
2018-06-11T08:34:17.503Z,27.59
2018-06-11T08:35:17.451Z,27.61
2018-06-11T08:37:10.245Z,28.67
2018-06-11T08:38:10.175Z,28.42
2018-06-11T08:40:02.978Z,27.62
2018-06-11T08:41:02.950Z,27.23
2018-06-11T08:42:55.740Z,26.81
2018-06-11T08:43:55.654Z,26.39
2018-06-11T08:45:48.462Z,26.09
2018-06-11T08:46:48.403Z,25.29
2018-06-11T08:48:41.187Z,24.90
2018-06-11T08:49:41.117Z,24.56
2018-06-11T08:51:33.933Z,24.67
2018-06-11T08:52:33.853Z,24.84
2018-06-11T08:54:26.644Z,25.26
2018-06-11T08:55:26.597Z,25.45
2018-06-11T08:57:19.481Z,25.93
2018-06-11T08:58:19.408Z,25.54
2018-06-11T09:00:12.205Z,24.97
2018-06-11T09:01:12.135Z,25.44
2018-06-11T09:03:05.003Z,27.06
2018-06-11T09:04:04.908Z,27.65
2018-06-11T09:05:57.691Z,28.72
2018-06-11T09:06:57.646Z,28.18
2018-06-11T09:08:50.433Z,27.65
2018-06-11T09:09:50.361Z,27.12
2018-06-11T09:11:43.149Z,25.86
2018-06-11T09:12:43.093Z,25.51
2018-06-11T09:14:35.878Z,24.92
2018-06-11T09:15:35.805Z,24.52
2018-06-11T09:17:28.618Z,23.75
2018-06-11T09:18:28.690Z,23.68
2018-06-11T09:20:21.343Z,23.63
2018-06-11T09:21:21.320Z,24.00
2018-06-11T09:23:14.087Z,25.44
2018-06-11T09:24:14.019Z,26.20
2018-06-11T09:26:06.817Z,27.21
2018-06-11T09:27:06.765Z,27.16
2018-06-11T09:28:59.806Z,26.59
2018-06-11T09:29:59.550Z,26.09
2018-06-11T09:31:52.258Z,25.53
2018-06-11T09:32:52.205Z,24.98
2018-06-11T09:34:45.025Z,24.67
2018-06-11T09:35:44.957Z,24.45
2018-06-11T09:37:37.747Z,24.94
2018-06-11T09:38:37.692Z,24.87
2018-06-11T09:40:30.498Z,26.28
2018-06-11T09:41:30.421Z,26.44
2018-06-11T09:43:23.250Z,27.24
2018-06-11T09:44:23.171Z,27.86
2018-06-11T09:46:15.972Z,28.18
2018-06-11T09:47:15.911Z,28.18
2018-06-11T09:49:08.768Z,28.58
2018-06-11T09:50:08.764Z,28.70
2018-06-11T09:52:01.463Z,28.98
2018-06-11T09:53:01.376Z,29.03
2018-06-11T09:54:54.196Z,27.63
2018-06-11T09:55:54.110Z,27.58
2018-06-11T09:57:46.897Z,28.15
2018-06-11T09:58:46.834Z,28.46
2018-06-11T10:00:39.627Z,28.73
2018-06-11T10:01:39.560Z,28.85
2018-06-11T10:03:32.346Z,28.83
2018-06-11T10:04:32.279Z,28.77
2018-06-11T10:06:25.059Z,28.76
2018-06-11T10:07:24.999Z,28.42
2018-06-11T10:09:17.807Z,27.39
2018-06-11T10:10:17.724Z,26.83
2018-06-11T10:12:10.549Z,26.23
2018-06-11T10:13:10.455Z,25.97
2018-06-11T10:15:03.253Z,25.83
2018-06-11T10:16:03.179Z,25.72
2018-06-11T10:17:55.968Z,25.35
2018-06-11T10:18:55.905Z,25.56
2018-06-11T10:20:48.707Z,26.28
2018-06-11T10:21:48.649Z,26.64
2018-06-11T10:23:41.415Z,26.90
2018-06-11T10:24:41.361Z,26.87
2018-06-11T10:26:34.148Z,27.03
2018-06-11T10:27:34.072Z,27.03
2018-06-11T10:29:26.867Z,27.05
2018-06-11T10:30:26.801Z,26.83
2018-06-11T10:32:45.073Z,27.11
2018-06-11T10:33:45.037Z,27.03
2018-06-11T10:35:37.806Z,27.18
2018-06-11T10:36:37.743Z,27.24
2018-06-11T10:38:30.524Z,27.49
2018-06-11T10:39:30.460Z,27.71
2018-06-11T10:41:23.242Z,27.72
2018-06-11T10:42:23.178Z,27.69
2018-06-11T10:44:15.984Z,27.72
2018-06-11T10:45:15.901Z,27.84
2018-06-11T10:47:08.668Z,27.90
2018-06-11T10:48:08.619Z,27.72
2018-06-11T10:50:01.395Z,27.49
2018-06-11T10:51:01.329Z,27.35
2018-06-11T10:52:54.097Z,27.33
2018-06-11T10:53:54.041Z,26.97
2018-06-11T10:55:46.821Z,26.81
2018-06-11T10:56:46.754Z,27.02
2018-06-11T10:58:39.530Z,26.91
2018-06-11T10:59:39.474Z,27.15
2018-06-11T11:01:32.260Z,27.33
2018-06-11T11:02:32.192Z,27.35
2018-06-11T11:04:24.993Z,27.08
2018-06-11T11:05:24.951Z,26.86
2018-06-11T11:07:17.784Z,26.69
2018-06-11T11:08:17.687Z,26.46
2018-06-11T11:10:10.563Z,26.54
2018-06-11T11:11:10.477Z,26.64
2018-06-11T11:13:03.292Z,26.75
2018-06-11T11:14:03.212Z,26.78
2018-06-11T11:15:56.008Z,26.32
2018-06-11T11:16:55.937Z,26.29
2018-06-11T11:18:48.746Z,26.35
2018-06-11T11:19:48.689Z,26.50
2018-06-11T11:21:41.508Z,26.71
2018-06-11T11:22:41.437Z,26.86
2018-06-11T11:24:34.205Z,26.75
2018-06-11T11:25:34.155Z,26.76
2018-06-11T11:27:26.937Z,26.71
2018-06-11T11:28:26.865Z,26.60
2018-06-11T11:30:19.670Z,26.68
2018-06-11T11:31:19.695Z,26.75
2018-06-11T11:33:12.406Z,26.64
2018-06-11T11:34:12.354Z,26.73
2018-06-11T11:36:05.155Z,26.59
2018-06-11T11:37:05.090Z,26.61
2018-06-11T11:38:57.914Z,26.54
2018-06-11T11:39:57.863Z,26.56
2018-06-11T11:41:50.683Z,26.79
2018-06-11T11:42:50.584Z,26.76
2018-06-11T11:44:43.390Z,26.41
2018-06-11T11:45:43.333Z,26.32
2018-06-11T11:47:36.111Z,26.29
2018-06-11T11:48:36.044Z,26.21
2018-06-11T11:50:28.817Z,26.12
2018-06-11T11:51:28.760Z,26.16
2018-06-11T11:53:21.577Z,25.81
2018-06-11T11:54:21.509Z,25.75
2018-06-11T11:56:14.306Z,25.44
2018-06-11T11:57:14.243Z,25.29
2018-06-11T11:59:07.041Z,25.31
2018-06-11T12:00:06.981Z,25.17
2018-06-11T12:01:59.911Z,25.29
2018-06-11T12:02:59.748Z,25.23
2018-06-11T12:04:52.541Z,25.30
2018-06-11T12:05:52.493Z,25.29
2018-06-11T12:07:45.294Z,25.24
2018-06-11T12:08:45.221Z,25.14
2018-06-11T12:10:38.028Z,25.16
2018-06-11T12:11:37.969Z,25.04
2018-06-11T12:13:30.771Z,25.20
2018-06-11T12:14:30.706Z,25.31
2018-06-11T12:16:23.468Z,25.27
2018-06-11T12:17:23.402Z,25.29
2018-06-11T12:19:16.172Z,25.29
2018-06-11T12:20:16.119Z,25.29
2018-06-11T12:22:08.935Z,25.22
2018-06-11T12:23:08.859Z,25.26
2018-06-11T12:25:01.631Z,25.20
2018-06-11T12:26:01.572Z,25.24
2018-06-11T12:27:54.357Z,25.30
2018-06-11T12:28:54.284Z,25.24
2018-06-11T12:30:47.081Z,25.24
2018-06-11T12:31:47.061Z,25.29
2018-06-11T12:33:39.841Z,25.27
2018-06-11T12:34:39.766Z,25.34
2018-06-11T12:36:32.579Z,25.22
2018-06-11T12:37:32.520Z,25.27
2018-06-11T12:39:25.336Z,25.11
2018-06-11T12:40:25.265Z,25.14
2018-06-11T12:42:18.130Z,25.17
2018-06-11T12:43:18.021Z,25.11
2018-06-11T12:45:10.820Z,25.27
2018-06-11T12:46:10.762Z,25.30
2018-06-11T12:48:03.549Z,25.34
2018-06-11T12:49:03.478Z,25.22
2018-06-11T12:50:56.250Z,25.30
2018-06-11T12:51:56.190Z,25.31
2018-06-11T12:53:48.971Z,25.24
2018-06-11T12:54:48.899Z,25.30
2018-06-11T12:56:41.713Z,25.27
2018-06-11T12:57:41.655Z,25.23
2018-06-11T12:59:34.474Z,25.22
2018-06-11T13:00:34.410Z,25.34
2018-06-11T13:02:27.219Z,25.39
2018-06-11T13:03:27.150Z,25.30
2018-06-11T13:05:19.961Z,25.26
2018-06-11T13:06:19.913Z,25.29
2018-06-11T13:08:12.746Z,25.12
2018-06-11T13:09:12.668Z,25.12
2018-06-11T13:11:05.453Z,25.30
2018-06-11T13:12:05.393Z,25.24
2018-06-11T13:13:58.180Z,25.20
2018-06-11T13:14:58.334Z,25.30
2018-06-11T13:16:50.918Z,25.24
2018-06-11T13:17:50.857Z,25.29
2018-06-11T13:19:43.668Z,25.41
2018-06-11T13:20:43.602Z,25.42
2018-06-11T13:22:36.435Z,25.19
2018-06-11T13:23:36.344Z,25.30
2018-06-11T13:25:29.131Z,25.26
2018-06-11T13:26:29.061Z,25.27
2018-06-11T13:28:21.946Z,25.31
2018-06-11T13:29:21.798Z,25.26
2018-06-11T13:31:14.597Z,25.26
2018-06-11T13:32:14.546Z,25.24
2018-06-11T13:34:07.368Z,25.45
2018-06-11T13:35:07.297Z,25.27
2018-06-11T13:37:00.192Z,25.22
2018-06-11T13:38:00.088Z,25.26
2018-06-11T13:39:52.854Z,25.22
2018-06-11T13:40:52.786Z,25.29
2018-06-11T13:42:45.696Z,25.39
2018-06-11T13:43:45.499Z,25.31
2018-06-11T13:45:38.298Z,25.36
2018-06-11T13:46:38.223Z,25.29
2018-06-11T13:48:31.009Z,25.36
2018-06-11T13:49:30.945Z,25.45
2018-06-11T13:51:23.707Z,25.46
2018-06-11T13:52:23.654Z,25.49
2018-06-11T13:54:16.451Z,25.67
2018-06-11T13:55:16.387Z,25.64
2018-06-11T13:57:09.205Z,25.60
2018-06-11T13:58:09.153Z,25.60
2018-06-11T14:00:01.918Z,25.74
2018-06-11T14:01:01.851Z,25.66
2018-06-11T14:02:54.641Z,25.54
2018-06-11T14:03:54.576Z,25.71
2018-06-11T14:05:47.449Z,25.60
2018-06-11T14:06:47.313Z,25.63
2018-06-11T14:08:40.094Z,25.69
2018-06-11T14:09:40.042Z,25.64
2018-06-11T14:11:32.834Z,25.63
2018-06-11T14:12:32.752Z,25.53
2018-06-11T14:14:25.540Z,25.46
2018-06-11T14:15:25.472Z,25.53
2018-06-11T14:17:18.255Z,25.49
2018-06-11T14:18:18.190Z,25.45
2018-06-11T14:20:10.965Z,25.46
2018-06-11T14:21:10.896Z,25.44
2018-06-11T14:23:03.685Z,25.39
2018-06-11T14:24:03.620Z,25.44
2018-06-11T14:25:56.395Z,25.42
2018-06-11T14:26:56.332Z,25.45
2018-06-11T14:28:49.094Z,25.69
2018-06-11T14:29:49.045Z,25.69
2018-06-11T14:31:41.828Z,25.61
2018-06-11T14:32:41.757Z,25.67
2018-06-11T14:34:34.529Z,25.74
2018-06-11T14:35:34.464Z,25.74
2018-06-11T14:37:27.245Z,25.69
2018-06-11T14:38:27.232Z,25.74
2018-06-11T14:40:19.961Z,25.79
2018-06-11T14:41:19.893Z,25.74
2018-06-11T14:43:12.676Z,25.63
2018-06-11T14:44:12.635Z,25.63
2018-06-11T14:46:05.426Z,25.67
2018-06-11T14:47:05.355Z,25.69
2018-06-11T14:48:58.124Z,25.63
2018-06-11T14:49:58.071Z,25.67
2018-06-11T14:51:50.865Z,25.74
2018-06-11T14:52:50.796Z,25.75
2018-06-11T14:54:43.599Z,25.71
2018-06-11T14:55:43.524Z,25.72
2018-06-11T14:57:36.304Z,25.69
2018-06-11T14:58:36.239Z,25.66
2018-06-11T15:00:29.022Z,25.69
2018-06-11T15:01:28.957Z,25.69
2018-06-11T15:03:21.729Z,25.67
2018-06-11T15:04:21.673Z,25.61
2018-06-11T15:06:14.457Z,25.59
2018-06-11T15:07:14.388Z,25.60
2018-06-11T15:09:07.161Z,25.48
2018-06-11T15:10:07.104Z,25.54
2018-06-11T15:11:59.885Z,25.48
2018-06-11T15:12:59.816Z,25.49
2018-06-11T15:14:52.625Z,25.49
2018-06-11T15:15:52.585Z,25.53
2018-06-11T15:17:45.358Z,25.54
2018-06-11T15:18:45.289Z,25.41
2018-06-11T15:20:38.123Z,25.41
2018-06-11T15:21:38.038Z,25.35
2018-06-11T15:23:30.893Z,25.31
2018-06-11T15:24:30.822Z,25.31
2018-06-11T15:26:23.601Z,25.24
2018-06-11T15:27:23.530Z,25.26
2018-06-11T15:29:16.386Z,25.41
2018-06-11T15:30:16.270Z,25.38
2018-06-11T15:32:09.054Z,25.44
2018-06-11T15:33:08.982Z,25.30
2018-06-11T15:35:01.788Z,25.19
2018-06-11T15:36:01.705Z,25.22
2018-06-11T15:37:54.544Z,25.23
2018-06-11T15:38:54.474Z,25.27
2018-06-11T15:40:47.273Z,25.36
2018-06-11T15:41:47.203Z,25.42
2018-06-11T15:43:40.009Z,25.23
2018-06-11T15:44:39.936Z,25.29
2018-06-11T15:46:32.751Z,25.46
2018-06-11T15:47:32.678Z,25.42
2018-06-11T15:49:25.466Z,25.27
2018-06-11T15:50:25.408Z,25.30
2018-06-11T15:52:18.208Z,25.26
2018-06-11T15:53:18.123Z,25.27
2018-06-11T15:55:10.897Z,25.35
2018-06-11T15:56:10.845Z,25.36
2018-06-11T15:58:03.648Z,25.27
2018-06-11T15:59:03.579Z,25.35
2018-06-11T16:00:56.355Z,25.23
2018-06-11T16:01:56.293Z,25.20
2018-06-11T16:03:49.074Z,25.26
2018-06-11T16:04:49.012Z,25.20
2018-06-11T16:06:41.789Z,25.23
2018-06-11T16:07:41.720Z,25.31
2018-06-11T16:09:34.489Z,25.29
2018-06-11T16:10:34.435Z,25.23
2018-06-11T16:12:27.215Z,25.24
2018-06-11T16:13:27.145Z,25.19
2018-06-11T16:15:19.952Z,25.22
2018-06-11T16:16:19.894Z,25.26
2018-06-11T16:18:12.686Z,25.26
2018-06-11T16:19:12.615Z,25.27
2018-06-11T16:21:05.417Z,25.11
2018-06-11T16:22:05.333Z,25.12
2018-06-11T16:23:58.132Z,25.19
2018-06-11T16:24:58.050Z,25.30
2018-06-11T16:26:50.837Z,25.20
2018-06-11T16:27:50.764Z,25.14
2018-06-11T16:29:43.549Z,25.29
2018-06-11T16:30:43.538Z,25.26
2018-06-11T16:32:36.259Z,25.14
2018-06-11T16:33:36.212Z,25.01
2018-06-11T16:35:29.003Z,25.05
2018-06-11T16:36:28.942Z,25.01
2018-06-11T16:38:21.718Z,25.05
2018-06-11T16:39:21.680Z,24.99
2018-06-11T16:41:14.434Z,25.02
2018-06-11T16:42:14.371Z,25.05
2018-06-11T16:44:07.208Z,24.98
2018-06-11T16:45:07.149Z,24.92
2018-06-11T16:46:59.933Z,24.87
2018-06-11T16:47:59.844Z,24.83
2018-06-11T16:49:52.613Z,24.82
2018-06-11T16:50:52.548Z,24.77
2018-06-11T16:52:45.324Z,24.75
2018-06-11T16:53:45.265Z,24.70
2018-06-11T16:55:38.047Z,24.64
2018-06-11T16:56:37.985Z,24.67
2018-06-11T16:58:30.788Z,24.56
2018-06-11T16:59:30.720Z,24.49
2018-06-11T17:01:23.483Z,24.63
2018-06-11T17:02:23.426Z,24.51
2018-06-11T17:04:16.200Z,24.49
2018-06-11T17:05:16.131Z,24.33
2018-06-11T17:07:08.898Z,24.36
2018-06-11T17:08:08.838Z,24.33
2018-06-11T17:10:01.706Z,24.29
2018-06-11T17:11:01.636Z,24.27
2018-06-11T17:12:54.459Z,24.12
2018-06-11T17:13:54.368Z,24.23
2018-06-11T17:15:47.150Z,24.24
2018-06-11T17:16:47.076Z,24.16
2018-06-11T17:18:39.882Z,24.14
2018-06-11T17:19:39.793Z,24.18
2018-06-11T17:21:32.571Z,24.16
2018-06-11T17:22:32.513Z,24.14
2018-06-11T17:24:25.313Z,24.12
2018-06-11T17:25:25.253Z,24.15
2018-06-11T17:27:18.083Z,24.09
2018-06-11T17:28:17.992Z,23.97
2018-06-11T17:30:10.808Z,24.08
2018-06-11T17:31:10.737Z,23.96
2018-06-11T17:33:03.509Z,23.97
2018-06-11T17:34:03.452Z,23.89
2018-06-11T17:35:56.211Z,23.99
2018-06-11T17:36:56.151Z,23.96
2018-06-11T17:38:48.940Z,23.87
2018-06-11T17:39:48.901Z,23.87
2018-06-11T17:41:41.649Z,23.84
2018-06-11T17:42:41.587Z,23.89
2018-06-11T17:44:34.390Z,23.74
2018-06-11T17:45:34.306Z,23.72
2018-06-11T17:47:27.077Z,23.79
2018-06-11T17:48:27.017Z,23.74
2018-06-11T17:50:19.797Z,23.71
2018-06-11T17:51:19.739Z,23.71
2018-06-11T17:53:12.507Z,23.74
2018-06-11T17:54:12.452Z,23.77
2018-06-11T17:56:05.228Z,23.63
2018-06-11T17:57:05.160Z,23.62
2018-06-11T17:58:57.961Z,23.63
2018-06-11T17:59:57.863Z,23.60
2018-06-11T18:01:50.660Z,23.53
2018-06-11T18:02:50.589Z,23.45
2018-06-11T18:04:43.489Z,23.38
2018-06-11T18:05:43.353Z,23.42
2018-06-11T18:07:36.132Z,23.37
2018-06-11T18:08:36.070Z,23.35
2018-06-11T18:10:28.895Z,23.29
2018-06-11T18:11:28.808Z,23.21
2018-06-11T18:13:21.577Z,23.11
2018-06-11T18:14:21.514Z,23.09
2018-06-11T18:16:14.333Z,23.12
2018-06-11T18:17:14.259Z,23.06
2018-06-11T18:19:07.038Z,23.01
2018-06-11T18:20:06.966Z,23.03
2018-06-11T18:21:59.749Z,23.04
2018-06-11T18:22:59.685Z,22.94
2018-06-11T18:24:52.469Z,23.00
2018-06-11T18:25:52.397Z,22.99
2018-06-11T18:27:45.168Z,22.86
2018-06-11T18:28:45.109Z,22.97
2018-06-11T18:30:37.885Z,22.88
2018-06-11T18:31:37.825Z,22.74